Time;durP1;ratioP1;P1;durP2;ratioP2;P2;SDS_P1;SDS_P2;PMS_P1;PMS_P2;Temp;Humidity;BMP_temperature;BMP_pressure;BME280_temperature;BME280_humidity;BME280_pressure;Samples;Min_cycle;Max_cycle;Signal;HPM_P1;HPM_P2
2022/10/26 00:00:30;;;;;;;18.77;8.88;;;;;;;;;;4784833;29;19921;-68
2022/10/26 00:02:56;;;;;;;25.17;9.02;;;;;;;;;;4800025;29;20073;-69
2022/10/26 00:05:23;;;;;;;15.48;7.50;;;;;;;;;;4787451;29;20050;-68
2022/10/26 00:07:49;;;;;;;22.60;8.15;;;;;;;;;;4785508;29;20070;-68
2022/10/26 00:10:16;;;;;;;16.67;7.03;;;;;;;;;;4782774;29;20035;-68
2022/10/26 00:12:42;;;;;;;13.05;5.43;;;;;;;;;;4778620;29;20035;-68
2022/10/26 00:15:08;;;;;;;;;;;;;;;;;;4786978;29;20545;-69
2022/10/26 00:17:34;;;;;;;11.55;4.10;;;;;;;;;;4783861;29;19981;-68
2022/10/26 00:20:01;;;;;;;18.17;4.50;;;;;;;;;;4785206;29;20055;-69
2022/10/26 00:22:27;;;;;;;16.67;4.28;;;;;;;;;;4781461;29;20247;-68
2022/10/26 00:24:53;;;;;;;17.70;4.68;;;;;;;;;;4786171;29;20038;-69
2022/10/26 00:27:19;;;;;;;;;;;;;;;;;;4782530;29;20588;-69
2022/10/26 00:29:45;;;;;;;18.02;4.35;;;;;;;;;;4782386;29;20114;-68
2022/10/26 00:32:11;;;;;;;;;;;;;;;;;;4789287;29;20321;-68
2022/10/26 00:34:37;;;;;;;20.05;4.32;;;;;;;;;;4797773;29;20339;-69
2022/10/26 00:37:03;;;;;;;;;;;;;;;;;;4786873;29;20125;-68
2022/10/26 00:39:29;;;;;;;18.63;3.75;;;;;;;;;;4784013;29;20251;-68
2022/10/26 00:41:55;;;;;;;;;;;;;;;;;;4789215;29;20039;-69
2022/10/26 00:45:00;;;;;;;18.10;3.75;;;;;;;;;;4783069;29;19924;-68
2022/10/26 00:47:39;;;;;;;17.48;4.07;;;;;;;;;;4780912;29;20527;-69
2022/10/26 00:50:34;;;;;;;20.98;3.85;;;;;;;;;;4781907;29;20085;-68
2022/10/26 00:53:03;;;;;;;19.95;3.45;;;;;;;;;;4775096;29;20067;-68
2022/10/26 00:55:30;;;;;;;21.90;3.67;;;;;;;;;;4781295;29;20545;-69
2022/10/26 00:57:57;;;;;;;23.25;4.20;;;;;;;;;;4784119;29;20042;-68
2022/10/26 01:00:23;;;;;;;20.83;3.20;;;;;;;;;;4784787;29;20054;-68
2022/10/26 01:02:49;;;;;;;;;;;;;;;;;;4787352;29;20054;-68
2022/10/26 01:05:16;;;;;;;21.92;4.13;;;;;;;;;;4777031;29;20009;-68
2022/10/26 01:07:44;;;;;;;19.48;3.78;;;;;;;;;;4780107;29;20370;-68
2022/10/26 01:10:12;;;;;;;18.42;3.25;;;;;;;;;;4782649;29;20478;-68
2022/10/26 01:12:38;;;;;;;20.52;3.70;;;;;;;;;;4778874;29;20687;-68
2022/10/26 01:15:05;;;;;;;19.05;3.78;;;;;;;;;;4782824;29;20046;-68
2022/10/26 01:17:50;;;;;;;20.95;3.72;;;;;;;;;;4783704;29;20043;-68
2022/10/26 01:20:34;;;;;;;23.92;3.78;;;;;;;;;;4789428;29;20177;-68
2022/10/26 01:23:03;;;;;;;16.83;3.47;;;;;;;;;;4789260;29;20030;-68
2022/10/26 01:25:36;;;;;;;13.60;3.17;;;;;;;;;;4799153;29;20499;-68
2022/10/26 01:28:06;;;;;;;18.92;3.60;;;;;;;;;;4787084;29;20267;-68
2022/10/26 01:30:43;;;;;;;17.67;3.35;;;;;;;;;;4786544;29;20475;-68
2022/10/26 01:33:12;;;;;;;16.58;3.45;;;;;;;;;;4788314;29;20045;-68
2022/10/26 01:35:54;;;;;;;19.10;3.50;;;;;;;;;;4782275;29;21739;-68
2022/10/26 01:38:32;;;;;;;14.60;3.53;;;;;;;;;;4783258;29;20380;-68
2022/10/26 01:41:03;;;;;;;29.73;3.28;;;;;;;;;;4790936;29;20115;-68
2022/10/26 01:43:31;;;;;;;17.55;3.90;;;;;;;;;;4784526;29;20043;-68
2022/10/26 01:45:58;;;;;;;15.13;3.60;;;;;;;;;;4789406;29;20333;-68
2022/10/26 01:48:25;;;;;;;23.05;3.70;;;;;;;;;;4779801;29;20047;-69
2022/10/26 01:50:53;;;;;;;16.90;3.58;;;;;;;;;;4783380;29;20730;-68
2022/10/26 01:53:19;;;;;;;16.73;3.15;;;;;;;;;;4785070;29;20043;-68
2022/10/26 01:55:50;;;;;;;13.27;2.83;;;;;;;;;;4785243;29;20184;-68
2022/10/26 01:58:24;;;;;;;16.58;3.63;;;;;;;;;;4797418;29;20123;-68
2022/10/26 02:01:10;;;;;;;20.35;3.28;;;;;;;;;;4783432;29;20074;-69
2022/10/26 02:03:53;;;;;;;20.70;3.53;;;;;;;;;;4783064;29;20046;-68
2022/10/26 02:06:30;;;;;;;15.25;3.08;;;;;;;;;;4783220;29;20039;-68
2022/10/26 02:09:00;;;;;;;15.35;3.38;;;;;;;;;;4785498;29;20095;-68
2022/10/26 02:11:36;;;;;;;16.27;3.08;;;;;;;;;;4779746;29;20452;-68
2022/10/26 02:14:02;;;;;;;16.58;3.42;;;;;;;;;;4787628;29;20067;-68
2022/10/26 02:16:28;;;;;;;;;;;;;;;;;;4785026;29;20085;-68
2022/10/26 02:19:00;;;;;;;15.40;3.13;;;;;;;;;;4791207;29;20053;-68
2022/10/26 02:21:37;;;;;;;17.58;2.85;;;;;;;;;;4783358;29;20488;-69
2022/10/26 02:24:04;;;;;;;15.77;3.17;;;;;;;;;;4784338;29;20043;-68
2022/10/26 02:26:31;;;;;;;16.17;2.85;;;;;;;;;;4781469;29;20034;-68
2022/10/26 02:29:00;;;;;;;16.70;2.88;;;;;;;;;;4781600;29;20034;-68
2022/10/26 02:31:28;;;;;;;18.83;3.30;;;;;;;;;;4785237;29;20031;-68
2022/10/26 02:33:55;;;;;;;16.98;3.30;;;;;;;;;;4780934;29;20150;-68
2022/10/26 02:36:23;;;;;;;18.60;3.25;;;;;;;;;;4785358;29;20531;-69
2022/10/26 02:38:51;;;;;;;15.07;2.95;;;;;;;;;;4786214;29;20039;-68
2022/10/26 02:41:17;;;;;;;9.65;2.58;;;;;;;;;;4784304;29;20026;-68
2022/10/26 02:43:55;;;;;;;14.73;3.20;;;;;;;;;;4779262;29;20127;-68
2022/10/26 02:46:23;;;;;;;10.77;2.63;;;;;;;;;;4796000;29;20361;-68
2022/10/26 02:48:50;;;;;;;12.73;3.03;;;;;;;;;;4785362;29;20071;-68
2022/10/26 02:51:15;;;;;;;;;;;;;;;;;;4785971;29;20034;-68
2022/10/26 02:54:05;;;;;;;14.52;3.10;;;;;;;;;;4780722;29;19916;-68
2022/10/26 02:56:39;;;;;;;16.58;3.30;;;;;;;;;;4779395;29;20215;-68
2022/10/26 02:59:07;;;;;;;17.48;2.83;;;;;;;;;;4781148;29;20039;-68
2022/10/26 03:01:33;;;;;;;16.83;2.92;;;;;;;;;;4782150;29;20065;-68
2022/10/26 03:03:59;;;;;;;14.13;2.50;;;;;;;;;;4783406;29;20042;-68
2022/10/26 03:06:26;;;;;;;13.13;3.05;;;;;;;;;;4780300;29;20037;-68
2022/10/26 03:08:52;;;;;;;13.18;3.15;;;;;;;;;;4784324;29;20026;-68
2022/10/26 03:11:18;;;;;;;15.93;2.80;;;;;;;;;;4786641;29;20042;-68
2022/10/26 03:13:45;;;;;;;14.70;2.85;;;;;;;;;;4781418;29;20443;-68
2022/10/26 03:16:10;;;;;;;;;;;;;;;;;;4786736;29;20038;-68
2022/10/26 03:18:37;;;;;;;13.48;3.17;;;;;;;;;;4781728;29;20401;-68
2022/10/26 03:21:03;;;;;;;17.92;2.90;;;;;;;;;;4785017;29;20145;-69
2022/10/26 03:23:29;;;;;;;12.10;2.90;;;;;;;;;;4785328;29;20574;-68
2022/10/26 03:25:55;;;;;;;;;;;;;;;;;;4788256;29;20034;-68
2022/10/26 03:28:21;;;;;;;17.05;3.20;;;;;;;;;;4783990;29;19975;-68
2022/10/26 03:30:47;;;;;;;;;;;;;;;;;;4784415;29;20122;-68
2022/10/26 03:33:13;;;;;;;16.70;2.80;;;;;;;;;;4783730;29;20479;-68
2022/10/26 03:35:39;;;;;;;14.18;2.83;;;;;;;;;;4782244;29;20316;-68
2022/10/26 03:38:05;;;;;;;;;;;;;;;;;;4782329;29;20046;-68
2022/10/26 03:40:31;;;;;;;12.73;2.72;;;;;;;;;;4780201;29;20400;-68
2022/10/26 03:42:57;;;;;;;19.17;2.80;;;;;;;;;;4782114;29;20034;-68
2022/10/26 03:45:24;;;;;;;18.08;3.83;;;;;;;;;;4778066;29;20042;-66
2022/10/26 03:47:50;;;;;;;12.93;2.40;;;;;;;;;;4784137;29;20034;-67
2022/10/26 03:50:17;;;;;;;12.00;3.00;;;;;;;;;;4783234;29;20042;-67
2022/10/26 03:52:43;;;;;;;11.48;2.53;;;;;;;;;;4778579;29;20026;-67
2022/10/26 03:55:10;;;;;;;13.25;2.88;;;;;;;;;;4782337;29;20038;-68
2022/10/26 03:57:40;;;;;;;13.90;2.95;;;;;;;;;;4778807;29;20597;-67
2022/10/26 04:00:07;;;;;;;11.85;2.67;;;;;;;;;;4782376;29;20043;-67
2022/10/26 04:02:33;;;;;;;8.77;2.20;;;;;;;;;;4781210;29;20375;-67
2022/10/26 04:04:59;;;;;;;;;;;;;;;;;;4785902;29;20038;-67
2022/10/26 04:07:25;;;;;;;17.20;2.47;;;;;;;;;;4782545;29;20357;-67
2022/10/26 04:09:51;;;;;;;18.60;3.03;;;;;;;;;;4789813;29;20476;-67
2022/10/26 04:12:17;;;;;;;18.52;2.90;;;;;;;;;;4791913;29;20038;-67
2022/10/26 04:14:43;;;;;;;15.63;2.90;;;;;;;;;;4783713;29;20038;-67
2022/10/26 04:17:09;;;;;;;11.07;2.70;;;;;;;;;;4788237;29;20061;-67
2022/10/26 04:19:35;;;;;;;14.27;3.83;;;;;;;;;;4783619;29;20496;-67
2022/10/26 04:22:01;;;;;;;15.68;4.30;;;;;;;;;;4788829;29;20039;-67
2022/10/26 04:24:27;;;;;;;;;;;;;;;;;;4782080;29;20154;-67
2022/10/26 04:26:54;;;;;;;16.92;4.45;;;;;;;;;;4787995;29;19921;-67
2022/10/26 04:29:20;;;;;;;17.92;4.35;;;;;;;;;;4783827;29;20076;-67
2022/10/26 04:31:46;;;;;;;12.00;3.70;;;;;;;;;;4787940;29;20470;-67
2022/10/26 04:34:12;;;;;;;14.98;4.38;;;;;;;;;;4786643;29;20129;-67
2022/10/26 04:36:38;;;;;;;12.25;3.28;;;;;;;;;;4782125;29;20038;-67
2022/10/26 04:39:04;;;;;;;16.33;3.38;;;;;;;;;;4785994;29;20039;-67
2022/10/26 04:41:30;;;;;;;15.55;3.60;;;;;;;;;;4782681;29;20077;-67
2022/10/26 04:43:56;;;;;;;13.93;3.10;;;;;;;;;;4786163;29;20045;-67
2022/10/26 04:46:23;;;;;;;15.05;2.88;;;;;;;;;;4780796;29;20407;-67
2022/10/26 04:48:48;;;;;;;;;;;;;;;;;;4787979;29;20146;-67
2022/10/26 04:51:15;;;;;;;11.38;2.97;;;;;;;;;;4783268;29;19928;-67
2022/10/26 04:53:41;;;;;;;13.85;3.10;;;;;;;;;;4783339;29;20047;-67
2022/10/26 04:56:07;;;;;;;13.32;2.95;;;;;;;;;;4785493;29;20043;-68
2022/10/26 04:58:33;;;;;;;13.90;3.03;;;;;;;;;;4782928;29;20111;-68
2022/10/26 05:00:59;;;;;;;;;;;;;;;;;;4784327;29;20150;-68
2022/10/26 05:03:25;;;;;;;12.68;3.10;;;;;;;;;;4786444;29;20043;-68
2022/10/26 05:05:51;;;;;;;16.23;3.67;;;;;;;;;;4789361;29;20616;-68
2022/10/26 05:08:17;;;;;;;13.38;3.05;;;;;;;;;;4800629;29;20030;-68
2022/10/26 05:10:47;;;;;;;15.30;4.05;;;;;;;;;;4786330;29;20451;-68
2022/10/26 05:13:13;;;;;;;17.40;3.67;;;;;;;;;;4787387;29;20164;-68
2022/10/26 05:15:39;;;;;;;;;;;;;;;;;;4787103;29;20154;-68
2022/10/26 05:18:07;;;;;;;15.13;3.33;;;;;;;;;;4785820;29;19924;-67
2022/10/26 05:20:34;;;;;;;15.45;3.40;;;;;;;;;;4782288;29;20618;-68
2022/10/26 05:23:05;;;;;;;15.40;3.55;;;;;;;;;;4787009;29;20364;-68
2022/10/26 05:25:32;;;;;;;11.15;3.42;;;;;;;;;;4783522;29;20047;-68
2022/10/26 05:27:59;;;;;;;21.20;4.47;;;;;;;;;;4784929;29;20031;-68
2022/10/26 05:30:25;;;;;;;17.90;3.50;;;;;;;;;;4783801;29;20047;-68
2022/10/26 05:32:58;;;;;;;15.77;3.50;;;;;;;;;;4785374;29;20215;-69
2022/10/26 05:35:25;;;;;;;14.73;3.20;;;;;;;;;;4784158;29;20042;-68
2022/10/26 05:37:51;;;;;;;15.13;3.80;;;;;;;;;;4784141;29;20452;-68
2022/10/26 05:40:17;;;;;;;14.77;3.85;;;;;;;;;;4783566;29;20115;-68
2022/10/26 05:42:43;;;;;;;;;;;;;;;;;;4783166;29;20031;-67
2022/10/26 05:45:10;;;;;;;16.00;3.90;;;;;;;;;;4783753;29;19921;-68
2022/10/26 05:47:43;;;;;;;11.18;3.47;;;;;;;;;;4779822;29;20047;-67
2022/10/26 05:50:10;;;;;;;13.18;3.42;;;;;;;;;;4801136;29;20118;-68
2022/10/26 05:52:43;;;;;;;15.70;3.60;;;;;;;;;;4785180;29;20075;-68
2022/10/26 05:55:11;;;;;;;18.52;4.20;;;;;;;;;;4785143;29;20550;-68
2022/10/26 05:57:37;;;;;;;18.42;6.47;;;;;;;;;;4781167;29;20043;-68
2022/10/26 06:00:06;;;;;;;17.13;5.28;;;;;;;;;;4784574;29;20150;-68
2022/10/26 06:02:37;;;;;;;19.38;5.38;;;;;;;;;;4782032;29;20046;-68
2022/10/26 06:05:04;;;;;;;20.00;5.78;;;;;;;;;;4783228;29;20147;-68
2022/10/26 06:07:32;;;;;;;20.70;5.38;;;;;;;;;;4781008;29;20050;-68
2022/10/26 06:09:58;;;;;;;22.70;5.72;;;;;;;;;;4786073;29;20031;-68
2022/10/26 06:12:25;;;;;;;23.23;5.28;;;;;;;;;;4783722;29;20544;-68
2022/10/26 06:14:51;;;;;;;19.27;5.50;;;;;;;;;;4788354;29;20034;-68
2022/10/26 06:17:36;;;;;;;23.98;5.03;;;;;;;;;;4787105;29;20049;-68
2022/10/26 06:20:21;;;;;;;19.73;4.35;;;;;;;;;;4786581;29;20432;-68
2022/10/26 06:22:59;;;;;;;16.67;4.43;;;;;;;;;;4786785;29;20069;-68
2022/10/26 06:25:34;;;;;;;22.50;4.65;;;;;;;;;;4785595;29;20034;-69
2022/10/26 06:28:03;;;;;;;15.85;4.63;;;;;;;;;;4795867;29;20042;-68
2022/10/26 06:30:29;;;;;;;17.27;5.47;;;;;;;;;;4788657;29;20042;-68
2022/10/26 06:32:55;;;;;;;;;;;;;;;;;;4786187;29;20645;-68
2022/10/26 06:35:40;;;;;;;18.20;5.93;;;;;;;;;;4781285;29;20534;-68
2022/10/26 06:38:17;;;;;;;19.00;5.55;;;;;;;;;;4781946;29;20103;-69
2022/10/26 06:40:48;;;;;;;15.20;4.95;;;;;;;;;;4798738;29;20046;-68
2022/10/26 06:43:24;;;;;;;20.88;5.80;;;;;;;;;;4782214;29;20031;-68
2022/10/26 06:45:54;;;;;;;19.13;6.28;;;;;;;;;;4783788;29;20133;-68
2022/10/26 06:48:22;;;;;;;22.50;6.70;;;;;;;;;;4782128;29;20095;-68
2022/10/26 06:50:52;;;;;;;19.85;5.95;;;;;;;;;;4785336;29;20090;-68
2022/10/26 06:53:24;;;;;;;18.92;5.68;;;;;;;;;;4785775;29;20034;-68
2022/10/26 06:55:51;;;;;;;20.17;6.15;;;;;;;;;;4797656;29;20468;-68
2022/10/26 06:58:18;;;;;;;27.58;6.70;;;;;;;;;;4786037;29;20181;-68
2022/10/26 07:00:45;;;;;;;24.17;6.53;;;;;;;;;;4780021;29;20061;-68
2022/10/26 07:03:11;;;;;;;28.67;7.63;;;;;;;;;;4786414;29;20057;-68
2022/10/26 07:05:37;;;;;;;;;;;;;;;;;;4785627;29;20055;-68
2022/10/26 07:08:04;;;;;;;27.08;7.05;;;;;;;;;;4780712;29;20013;-68
2022/10/26 07:10:30;;;;;;;24.50;7.35;;;;;;;;;;4784823;29;20368;-68
2022/10/26 07:12:57;;;;;;;26.48;6.70;;;;;;;;;;4780352;29;20091;-68
2022/10/26 07:15:23;;;;;;;31.50;6.43;;;;;;;;;;4780497;29;20491;-70
2022/10/26 07:17:50;;;;;;;23.63;6.35;;;;;;;;;;4783012;29;20043;-68
2022/10/26 07:20:17;;;;;;;31.67;7.57;;;;;;;;;;4783663;29;20146;-68
2022/10/26 07:22:43;;;;;;;23.08;6.28;;;;;;;;;;4783318;29;20054;-68
2022/10/26 07:25:10;;;;;;;;;;;;;;;;;;4782428;29;20462;-68
2022/10/26 07:27:36;;;;;;;25.02;6.07;;;;;;;;;;4780606;29;20020;-68
2022/10/26 07:30:02;;;;;;;16.25;4.55;;;;;;;;;;4784927;29;20043;-68
2022/10/26 07:32:29;;;;;;;;;;;;;;;;;;4780843;29;20077;-68
2022/10/26 07:34:55;;;;;;;22.92;6.47;;;;;;;;;;4783416;29;19921;-68
2022/10/26 07:37:21;;;;;;;21.08;5.85;;;;;;;;;;4779980;29;20051;-68
2022/10/26 07:39:47;;;;;;;16.80;5.57;;;;;;;;;;4780650;29;20303;-68
2022/10/26 07:42:15;;;;;;;14.93;4.88;;;;;;;;;;4780801;29;20427;-68
2022/10/26 07:44:41;;;;;;;18.90;5.15;;;;;;;;;;4778590;29;20142;-68
2022/10/26 07:47:07;;;;;;;25.55;6.00;;;;;;;;;;4781571;29;20042;-68
2022/10/26 07:49:33;;;;;;;18.63;4.70;;;;;;;;;;4778826;29;20335;-68
2022/10/26 07:51:59;;;;;;;15.27;4.72;;;;;;;;;;4781981;29;20027;-68
2022/10/26 07:54:25;;;;;;;13.40;4.55;;;;;;;;;;4779258;29;20027;-69
2022/10/26 07:56:51;;;;;;;15.85;5.10;;;;;;;;;;4783366;29;20035;-69
2022/10/26 07:59:18;;;;;;;16.33;4.47;;;;;;;;;;4786711;29;20033;-68
2022/10/26 08:01:44;;;;;;;16.10;4.60;;;;;;;;;;4783346;29;20460;-68
2022/10/26 08:04:10;;;;;;;14.27;4.70;;;;;;;;;;4787499;29;20018;-68
2022/10/26 08:06:36;;;;;;;16.73;5.50;;;;;;;;;;4779739;29;20927;-68
2022/10/26 08:09:03;;;;;;;21.20;6.38;;;;;;;;;;4781697;29;20448;-68
2022/10/26 08:11:29;;;;;;;17.48;5.38;;;;;;;;;;4778854;29;20053;-68
2022/10/26 08:13:55;;;;;;;18.85;6.72;;;;;;;;;;4784682;29;20210;-68
2022/10/26 08:16:22;;;;;;;19.83;7.18;;;;;;;;;;4790134;29;20081;-69
2022/10/26 08:18:48;;;;;;;20.90;7.32;;;;;;;;;;4781280;29;20058;-68
2022/10/26 08:21:14;;;;;;;18.17;6.65;;;;;;;;;;4796334;29;20043;-68
2022/10/26 08:23:41;;;;;;;19.50;6.53;;;;;;;;;;4783657;29;20475;-68
2022/10/26 08:26:10;;;;;;;20.35;6.95;;;;;;;;;;4789415;29;20128;-69
2022/10/26 08:28:36;;;;;;;18.58;7.38;;;;;;;;;;4781453;29;20174;-69
2022/10/26 08:31:02;;;;;;;17.45;6.38;;;;;;;;;;4785928;29;20086;-69
2022/10/26 08:33:29;;;;;;;18.92;6.13;;;;;;;;;;4782040;29;20126;-69
2022/10/26 08:35:56;;;;;;;18.25;5.72;;;;;;;;;;4781684;29;20414;-69
2022/10/26 08:38:22;;;;;;;18.60;4.85;;;;;;;;;;4782570;29;20093;-69
2022/10/26 08:40:48;;;;;;;26.20;5.20;;;;;;;;;;4785614;29;20395;-70
2022/10/26 08:43:14;;;;;;;18.95;4.75;;;;;;;;;;4784384;29;20212;-69
2022/10/26 08:45:44;;;;;;;14.35;4.82;;;;;;;;;;4783429;29;20589;-69
2022/10/26 08:48:15;;;;;;;17.10;4.85;;;;;;;;;;4786639;29;20145;-70
2022/10/26 08:50:42;;;;;;;13.60;4.60;;;;;;;;;;4794121;29;20038;-68
2022/10/26 09:52:26;;;;;;;16.40;4.30;;;;;;;;;;5752023;23;20065;-62
2022/10/26 09:54:52;;;;;;;14.27;4.45;;;;;;;;;;4852690;29;20037;-62
2022/10/26 09:57:20;;;;;;;13.75;3.75;;;;;;;;;;4857705;29;20498;-62
2022/10/26 09:59:46;;;;;;;10.07;3.58;;;;;;;;;;4856143;29;20496;-62
2022/10/26 10:02:31;;;;;;;11.43;3.80;;;;;;;;;;4858995;29;20103;-63
2022/10/26 10:04:57;;;;;;;12.15;3.38;;;;;;;;;;4852568;29;20025;-62
2022/10/26 10:07:24;;;;;;;10.35;3.70;;;;;;;;;;4855064;29;20143;-63
2022/10/26 10:10:16;;;;;;;9.15;3.30;;;;;;;;;;4857107;29;20108;-65
2022/10/26 10:12:42;;;;;;;11.00;3.40;;;;;;;;;;4850330;29;20792;-63
2022/10/26 10:15:20;;;;;;;15.35;3.70;;;;;;;;;;4857047;29;20135;-63
2022/10/26 10:17:48;;;;;;;8.90;3.03;;;;;;;;;;4858387;29;20485;-63
2022/10/26 10:20:17;;;;;;;10.55;3.13;;;;;;;;;;4856346;29;20041;-63
2022/10/26 10:22:57;;;;;;;10.27;3.40;;;;;;;;;;4854948;29;20370;-63
2022/10/26 10:25:34;;;;;;;11.68;3.33;;;;;;;;;;4854890;29;20525;-64
2022/10/26 10:28:01;;;;;;;13.50;3.65;;;;;;;;;;4855932;29;20492;-63
2022/10/26 10:30:28;;;;;;;11.43;3.83;;;;;;;;;;4853263;29;20041;-63
2022/10/26 10:33:11;;;;;;;14.15;3.80;;;;;;;;;;4857191;29;20037;-63
2022/10/26 10:35:39;;;;;;;9.27;3.50;;;;;;;;;;4853841;29;20047;-63
2022/10/26 10:38:05;;;;;;;10.10;3.40;;;;;;;;;;4857602;29;20028;-64
2022/10/26 10:40:31;;;;;;;12.00;3.00;;;;;;;;;;4854825;29;20040;-64
2022/10/26 10:43:12;;;;;;;10.00;2.83;;;;;;;;;;4857875;29;20599;-64
2022/10/26 10:45:38;;;;;;;14.52;3.38;;;;;;;;;;4855592;29;20105;-64
2022/10/26 10:48:13;;;;;;;9.38;2.67;;;;;;;;;;4855435;29;20715;-63
2022/10/26 10:50:58;;;;;;;8.93;2.63;;;;;;;;;;4854653;29;24264;-63
2022/10/26 10:53:24;;;;;;;;;;;;;;;;;;4851342;29;20041;-63
2022/10/26 10:56:11;;;;;;;10.80;2.95;;;;;;;;;;4855415;29;20003;-63
2022/10/26 10:58:44;;;;;;;8.50;2.50;;;;;;;;;;4832535;29;20049;-63
2022/10/26 11:01:13;;;;;;;9.23;2.42;;;;;;;;;;4832126;29;20778;-63
2022/10/26 11:03:42;;;;;;;10.15;2.67;;;;;;;;;;4829512;29;21084;-65
2022/10/26 11:06:27;;;;;;;9.32;3.10;;;;;;;;;;4813827;29;20179;-63
2022/10/26 11:09:11;;;;;;;10.88;2.63;;;;;;;;;;4828895;29;20077;-63
2022/10/26 11:11:52;;;;;;;10.95;2.53;;;;;;;;;;4826708;29;20034;-63
2022/10/26 11:14:18;;;;;;;9.23;2.50;;;;;;;;;;4822833;29;20041;-63
2022/10/26 11:17:03;;;;;;;8.95;2.63;;;;;;;;;;4820430;29;20129;-62
2022/10/26 11:19:34;;;;;;;11.60;2.80;;;;;;;;;;4807220;29;20516;-63
2022/10/26 11:22:02;;;;;;;12.55;2.83;;;;;;;;;;4826493;29;20661;-63
2022/10/26 11:24:34;;;;;;;9.45;2.05;;;;;;;;;;4821252;29;20041;-64
2022/10/26 11:27:15;;;;;;;8.65;2.53;;;;;;;;;;4810514;29;20210;-63
2022/10/26 11:30:01;;;;;;;12.30;2.60;;;;;;;;;;4827265;29;20041;-64
2022/10/26 11:32:27;;;;;;;12.70;2.50;;;;;;;;;;4821198;29;20061;-63
2022/10/26 11:34:53;;;;;;;9.50;2.20;;;;;;;;;;4813983;29;20450;-65
2022/10/26 11:37:36;;;;;;;9.77;2.42;;;;;;;;;;4849162;29;20128;-65
2022/10/26 11:40:05;;;;;;;9.30;2.47;;;;;;;;;;4850928;29;20589;-65
2022/10/26 11:42:34;;;;;;;11.10;2.42;;;;;;;;;;4850250;29;20037;-65
2022/10/26 11:45:09;;;;;;;11.07;2.42;;;;;;;;;;4851581;29;20044;-62
2022/10/26 11:47:37;;;;;;;;;;;;;;;;;;4851851;29;20037;-63
2022/10/26 11:50:11;;;;;;;10.07;2.50;;;;;;;;;;4853346;29;20522;-63
2022/10/26 11:52:42;;;;;;;8.05;2.50;;;;;;;;;;4846293;29;20041;-64
2022/10/26 11:55:10;;;;;;;9.35;2.30;;;;;;;;;;4851422;29;20045;-64
2022/10/26 11:57:37;;;;;;;9.07;2.78;;;;;;;;;;4850855;29;20289;-64
2022/10/26 12:00:12;;;;;;;10.13;2.50;;;;;;;;;;4850917;29;20202;-66
2022/10/26 12:02:41;;;;;;;9.73;2.33;;;;;;;;;;4851282;29;20343;-64
2022/10/26 12:05:07;;;;;;;8.88;2.38;;;;;;;;;;4853737;29;20045;-63
2022/10/26 12:07:35;;;;;;;10.98;2.58;;;;;;;;;;4848068;29;20037;-63
2022/10/26 12:10:02;;;;;;;7.55;2.00;;;;;;;;;;4855645;29;20393;-63
2022/10/26 12:12:46;;;;;;;10.43;2.40;;;;;;;;;;4850451;29;20121;-62
2022/10/26 12:15:15;;;;;;;10.32;2.67;;;;;;;;;;4854415;29;20112;-63
2022/10/26 12:17:54;;;;;;;7.28;2.42;;;;;;;;;;4851412;29;20037;-63
2022/10/26 12:20:23;;;;;;;8.07;2.20;;;;;;;;;;4850208;29;20041;-63
2022/10/26 12:22:50;;;;;;;17.55;3.50;;;;;;;;;;4854813;29;20037;-63
2022/10/26 12:25:16;;;;;;;9.50;2.50;;;;;;;;;;4856281;29;20040;-63
2022/10/26 12:27:42;;;;;;;7.85;2.50;;;;;;;;;;4855997;29;20054;-64
2022/10/26 12:30:11;;;;;;;13.63;2.45;;;;;;;;;;4856776;29;20034;-64
2022/10/26 12:32:39;;;;;;;10.40;2.80;;;;;;;;;;4855869;29;20064;-64
2022/10/26 12:35:24;;;;;;;9.77;2.53;;;;;;;;;;4856555;29;20040;-64
2022/10/26 12:37:54;;;;;;;11.63;2.30;;;;;;;;;;4857052;29;20111;-64
2022/10/26 12:40:33;;;;;;;10.85;2.35;;;;;;;;;;4839585;29;20189;-64
2022/10/26 12:43:14;;;;;;;8.02;2.30;;;;;;;;;;4856546;29;20705;-63
2022/10/26 12:45:41;;;;;;;10.25;2.70;;;;;;;;;;4853845;29;20072;-66
2022/10/26 12:48:25;;;;;;;11.50;2.67;;;;;;;;;;4856194;29;20033;-63
2022/10/26 12:50:52;;;;;;;9.30;2.38;;;;;;;;;;4857310;29;20033;-64
2022/10/26 12:56:26;;;;;;;9.32;2.33;;;;;;;;;;5453186;23;20053;-64
2022/10/26 12:59:00;;;;;;;12.43;2.40;;;;;;;;;;4854141;29;20096;-64
2022/10/26 13:01:30;;;;;;;9.07;2.60;;;;;;;;;;4854733;29;20094;-64
2022/10/26 13:04:12;;;;;;;9.05;2.28;;;;;;;;;;4858798;29;20093;-64
2022/10/26 13:06:57;;;;;;;9.82;2.47;;;;;;;;;;4856335;29;20334;-64
2022/10/26 13:09:25;;;;;;;10.48;2.67;;;;;;;;;;4859097;29;20037;-64
2022/10/26 13:11:58;;;;;;;9.02;2.70;;;;;;;;;;4859556;29;20043;-64
2022/10/26 13:14:35;;;;;;;9.27;2.75;;;;;;;;;;4857196;29;20078;-64
2022/10/26 13:17:06;;;;;;;13.38;3.03;;;;;;;;;;4858941;29;20101;-64
2022/10/26 13:19:39;;;;;;;13.40;2.88;;;;;;;;;;4855000;29;20136;-64
2022/10/26 13:22:06;;;;;;;12.10;3.08;;;;;;;;;;4857933;29;20636;-64
2022/10/26 13:24:33;;;;;;;9.13;2.25;;;;;;;;;;4854287;29;20037;-64
2022/10/26 13:27:08;;;;;;;8.48;2.13;;;;;;;;;;4858231;29;20123;-64
2022/10/26 13:29:34;;;;;;;;;;;;;;;;;;4854233;29;20037;-64
2022/10/26 13:32:00;;;;;;;10.38;2.63;;;;;;;;;;4857033;29;19938;-64
2022/10/26 13:34:29;;;;;;;13.77;2.90;;;;;;;;;;4853225;29;20037;-64
2022/10/26 13:36:55;;;;;;;11.73;2.58;;;;;;;;;;4857832;29;20037;-64
2022/10/26 13:39:27;;;;;;;9.98;2.58;;;;;;;;;;4854414;29;20036;-64
2022/10/26 13:41:54;;;;;;;9.55;2.40;;;;;;;;;;4859514;29;20025;-64
2022/10/26 13:44:40;;;;;;;8.55;2.45;;;;;;;;;;4855100;29;20120;-65
2022/10/26 13:47:09;;;;;;;6.80;2.10;;;;;;;;;;4858518;29;20036;-64
2022/10/26 13:49:42;;;;;;;9.73;2.20;;;;;;;;;;4858021;29;20037;-64
2022/10/26 14:52:29;;;;;;;7.97;2.22;;;;;;;;;;5797958;23;20056;-68
2022/10/26 14:54:56;;;;;;;10.80;2.20;;;;;;;;;;4849735;29;20147;-68
2022/10/26 14:57:30;;;;;;;8.80;2.55;;;;;;;;;;4851509;29;20081;-68
2022/10/26 14:59:59;;;;;;;6.45;1.90;;;;;;;;;;4855802;29;20472;-67
2022/10/26 15:02:26;;;;;;;10.90;2.55;;;;;;;;;;4854483;29;20178;-68
2022/10/26 15:05:00;;;;;;;10.13;2.50;;;;;;;;;;4856896;29;20025;-68
2022/10/26 15:07:34;;;;;;;11.87;2.40;;;;;;;;;;4853619;29;20190;-68
2022/10/26 15:10:00;;;;;;;7.68;2.05;;;;;;;;;;4856379;29;20362;-68
2022/10/26 15:12:31;;;;;;;8.25;2.05;;;;;;;;;;4854899;29;20578;-68
2022/10/26 15:15:10;;;;;;;9.68;2.50;;;;;;;;;;4857232;29;20488;-67
2022/10/26 15:17:37;;;;;;;9.07;2.40;;;;;;;;;;4852014;29;20469;-68
2022/10/26 15:20:05;;;;;;;7.38;2.28;;;;;;;;;;4859426;29;20032;-68
2022/10/26 15:22:32;;;;;;;9.02;2.22;;;;;;;;;;4853901;29;20029;-68
2022/10/26 15:25:02;;;;;;;10.15;2.17;;;;;;;;;;4858553;29;20101;-68
2022/10/26 15:27:28;;;;;;;6.90;2.20;;;;;;;;;;4854740;29;20033;-68
2022/10/26 15:30:13;;;;;;;8.45;2.67;;;;;;;;;;4857203;29;20221;-68
2022/10/26 15:32:39;;;;;;;9.07;2.67;;;;;;;;;;4854115;29;21161;-68
2022/10/26 15:35:18;;;;;;;7.88;2.55;;;;;;;;;;4857905;29;21094;-68
2022/10/26 15:37:47;;;;;;;9.52;2.33;;;;;;;;;;4849177;29;20061;-68
2022/10/26 15:40:14;;;;;;;7.32;2.40;;;;;;;;;;4861796;29;20029;-68
2022/10/26 15:42:41;;;;;;;12.43;2.65;;;;;;;;;;4855075;29;20067;-68
2022/10/26 15:45:15;;;;;;;10.30;2.42;;;;;;;;;;4855931;29;20021;-68
2022/10/26 15:47:41;;;;;;;7.35;2.42;;;;;;;;;;4853936;29;20048;-68
2022/10/26 15:50:17;;;;;;;9.38;2.53;;;;;;;;;;4858246;29;20032;-68
2022/10/26 16:41:32;;;;;;;17.92;4.60;;;;;;;;;;5553001;23;20102;-68
2022/10/26 16:43:59;;;;;;;12.35;5.25;;;;;;;;;;4839041;29;21099;-68
2022/10/26 16:46:25;;;;;;;11.45;4.40;;;;;;;;;;4834577;29;20037;-68
2022/10/26 16:48:51;;;;;;;10.75;3.50;;;;;;;;;;4836984;29;20282;-68
2022/10/26 17:07:21;;;;;;;14.10;4.40;;;;;;;;;;5566494;23;20061;-68
2022/10/26 17:09:47;;;;;;;12.35;4.45;;;;;;;;;;4846922;29;20025;-68
2022/10/26 17:12:13;;;;;;;15.68;4.72;;;;;;;;;;4854237;29;20072;-68
2022/10/26 17:14:39;;;;;;;13.50;4.47;;;;;;;;;;4848911;29;20616;-68
2022/10/26 17:17:05;;;;;;;17.00;4.80;;;;;;;;;;4853501;29;20066;-68
2022/10/26 17:19:31;;;;;;;13.82;4.82;;;;;;;;;;4853448;29;20058;-67
2022/10/26 17:21:58;;;;;;;19.58;6.45;;;;;;;;;;4854683;29;20552;-68
2022/10/26 17:24:24;;;;;;;17.75;6.35;;;;;;;;;;4851604;29;20034;-68
2022/10/26 17:26:50;;;;;;;16.00;6.85;;;;;;;;;;4851708;29;20041;-68
2022/10/26 17:29:17;;;;;;;18.13;7.22;;;;;;;;;;4850302;29;20051;-68
2022/10/26 17:31:43;;;;;;;15.10;5.82;;;;;;;;;;4847856;29;20045;-68
2022/10/26 17:34:10;;;;;;;18.42;6.63;;;;;;;;;;4849112;29;20025;-68
2022/10/26 17:36:36;;;;;;;17.50;7.07;;;;;;;;;;4848789;29;20033;-68
2022/10/26 17:39:02;;;;;;;19.42;7.28;;;;;;;;;;4850348;29;20125;-68
2022/10/26 17:41:28;;;;;;;21.05;8.32;;;;;;;;;;4849442;29;20049;-68
2022/10/26 17:43:55;;;;;;;16.95;7.68;;;;;;;;;;4851194;29;20045;-68
2022/10/26 17:46:23;;;;;;;19.00;7.82;;;;;;;;;;4853338;29;20036;-69
2022/10/26 17:49:00;;;;;;;24.48;7.20;;;;;;;;;;4852299;29;20478;-68
2022/10/26 17:51:27;;;;;;;14.95;5.72;;;;;;;;;;4845331;29;20060;-68
2022/10/26 17:53:53;;;;;;;15.35;5.90;;;;;;;;;;4852371;29;20028;-68
2022/10/26 17:56:21;;;;;;;19.90;6.65;;;;;;;;;;4852036;29;20033;-69
2022/10/26 17:58:57;;;;;;;14.68;5.80;;;;;;;;;;4852169;29;20041;-68
2022/10/26 18:01:24;;;;;;;16.60;5.93;;;;;;;;;;4850754;29;20492;-69